CheckWX is a tool to help pilots better visualize weather data.  It is not intended as a substitute for an official pre-flight weather briefing.

06:37:56 UTC

EGUL METAR
RAF Lakenheath Airport
Lakenheath, United Kingdom
Current

42 mins ago

EGUL 230556Z 10008KT 9999 BKN110 11/07 A2950 RMK AO2A SLPNO
Observed
Apr-23 @ 05:56 UTC
Wind
  • 100° at 8 KTS
Visibility
10,000+ meters
Flight Rules
VFR
Cloud Levels
  • Broken at 11,000' AGL
Temperature
11°C / 52°F
Dewpoint
C / 45°F
Humidity
77%
Altimeter
29.5" Hg
Pressure
999.02 hPa
Previous

2 hours ago

EGUL 230456Z 09006KT 9999 CLR A2950 RMK A02A SLP993 T01110066 $
Observed
Apr-23 @ 04:56 UTC
Wind
  • 090° at 6 KTS
Visibility
10,000+ meters
Flight Rules
VFR
Cloud Levels
  • Clear skies
Altimeter
29.5" Hg
Pressure
999.02 hPa
Previous

2 hours ago

EGUL 230456Z COR 09006KT 9999SM CLR 11/07 A2950 RMK AO2A SLP993 T01110066 $ COR 0509
Observed
Apr-23 @ 04:56 UTC
Wind
  • 090° at 6 KTS
Visibility
159,325 meters
Flight Rules
VFR
Cloud Levels
  • Clear skies
Temperature
11°C / 52°F
Dewpoint
C / 45°F
Humidity
77%
Altimeter
29.5" Hg
Pressure
999.02 hPa